sensor_id;sensor_type;location;lat;lon;timestamp;P1;durP1;ratioP1;P2;durP2;ratioP2
50731;SDS011;36700;50.488;2.544;2023-07-20T00:02:00;5.07;;;1.90;;
50731;SDS011;36700;50.488;2.544;2023-07-20T00:04:28;8.15;;;2.63;;
50731;SDS011;36700;50.488;2.544;2023-07-20T00:06:54;7.20;;;2.08;;
50731;SDS011;36700;50.488;2.544;2023-07-20T00:09:20;9.13;;;2.60;;
50731;SDS011;36700;50.488;2.544;2023-07-20T00:11:50;9.05;;;2.50;;
50731;SDS011;36700;50.488;2.544;2023-07-20T00:14:17;7.05;;;2.20;;
50731;SDS011;36700;50.488;2.544;2023-07-20T00:16:44;6.97;;;2.40;;
50731;SDS011;36700;50.488;2.544;2023-07-20T00:19:12;8.65;;;2.28;;
50731;SDS011;36700;50.488;2.544;2023-07-20T00:21:38;8.95;;;2.15;;
50731;SDS011;36700;50.488;2.544;2023-07-20T00:24:08;7.68;;;2.20;;
50731;SDS011;36700;50.488;2.544;2023-07-20T00:26:34;8.07;;;2.30;;
50731;SDS011;36700;50.488;2.544;2023-07-20T00:29:00;9.43;;;2.78;;
50731;SDS011;36700;50.488;2.544;2023-07-20T00:31:26;7.63;;;2.60;;
50731;SDS011;36700;50.488;2.544;2023-07-20T00:33:52;6.75;;;2.10;;
50731;SDS011;36700;50.488;2.544;2023-07-20T00:36:18;8.95;;;2.38;;
50731;SDS011;36700;50.488;2.544;2023-07-20T00:38:44;6.55;;;2.17;;
50731;SDS011;36700;50.488;2.544;2023-07-20T00:41:10;7.50;;;2.47;;
50731;SDS011;36700;50.488;2.544;2023-07-20T00:43:36;5.78;;;2.15;;
50731;SDS011;36700;50.488;2.544;2023-07-20T00:46:02;8.82;;;2.25;;
50731;SDS011;36700;50.488;2.544;2023-07-20T00:48:29;8.13;;;2.47;;
50731;SDS011;36700;50.488;2.544;2023-07-20T00:50:55;9.43;;;2.35;;
50731;SDS011;36700;50.488;2.544;2023-07-20T00:53:23;8.77;;;2.70;;
50731;SDS011;36700;50.488;2.544;2023-07-20T00:55:49;7.97;;;2.28;;
50731;SDS011;36700;50.488;2.544;2023-07-20T00:58:15;9.57;;;2.38;;
50731;SDS011;36700;50.488;2.544;2023-07-20T01:00:41;9.30;;;2.55;;
50731;SDS011;36700;50.488;2.544;2023-07-20T01:03:07;9.05;;;2.70;;
50731;SDS011;36700;50.488;2.544;2023-07-20T01:05:38;7.60;;;2.58;;
50731;SDS011;36700;50.488;2.544;2023-07-20T01:08:13;7.55;;;2.55;;
50731;SDS011;36700;50.488;2.544;2023-07-20T01:10:43;8.32;;;2.42;;
50731;SDS011;36700;50.488;2.544;2023-07-20T01:13:15;7.30;;;2.50;;
50731;SDS011;36700;50.488;2.544;2023-07-20T01:15:48;8.18;;;2.65;;
50731;SDS011;36700;50.488;2.544;2023-07-20T01:20:41;7.22;;;2.17;;
50731;SDS011;36700;50.488;2.544;2023-07-20T01:28:37;8.90;;;2.88;;
50731;SDS011;36700;50.488;2.544;2023-07-20T01:31:36;7.60;;;2.22;;
50731;SDS011;36700;50.488;2.544;2023-07-20T01:34:04;6.32;;;2.30;;
50731;SDS011;36700;50.488;2.544;2023-07-20T01:36:33;8.68;;;2.40;;
50731;SDS011;36700;50.488;2.544;2023-07-20T01:39:00;9.65;;;2.63;;
50731;SDS011;36700;50.488;2.544;2023-07-20T01:41:28;6.53;;;2.40;;
50731;SDS011;36700;50.488;2.544;2023-07-20T01:43:57;8.05;;;2.40;;
50731;SDS011;36700;50.488;2.544;2023-07-20T01:46:24;6.32;;;2.30;;
50731;SDS011;36700;50.488;2.544;2023-07-20T01:48:50;6.88;;;2.42;;
50731;SDS011;36700;50.488;2.544;2023-07-20T01:51:17;6.28;;;2.05;;
50731;SDS011;36700;50.488;2.544;2023-07-20T01:53:45;10.25;;;2.67;;
50731;SDS011;36700;50.488;2.544;2023-07-20T01:56:11;7.95;;;2.50;;
50731;SDS011;36700;50.488;2.544;2023-07-20T01:58:38;8.75;;;2.33;;
50731;SDS011;36700;50.488;2.544;2023-07-20T02:01:04;7.03;;;2.53;;
50731;SDS011;36700;50.488;2.544;2023-07-20T02:03:30;7.10;;;2.20;;
50731;SDS011;36700;50.488;2.544;2023-07-20T02:05:56;7.93;;;2.55;;
50731;SDS011;36700;50.488;2.544;2023-07-20T02:08:22;7.38;;;2.70;;
50731;SDS011;36700;50.488;2.544;2023-07-20T02:10:48;9.95;;;2.65;;
50731;SDS011;36700;50.488;2.544;2023-07-20T02:13:15;8.15;;;2.50;;
50731;SDS011;36700;50.488;2.544;2023-07-20T02:15:41;10.60;;;2.65;;
50731;SDS011;36700;50.488;2.544;2023-07-20T02:18:08;9.07;;;2.60;;
50731;SDS011;36700;50.488;2.544;2023-07-20T02:20:35;8.80;;;2.70;;
50731;SDS011;36700;50.488;2.544;2023-07-20T02:23:01;9.63;;;2.60;;
50731;SDS011;36700;50.488;2.544;2023-07-20T02:25:27;9.13;;;2.70;;
50731;SDS011;36700;50.488;2.544;2023-07-20T02:27:53;8.77;;;2.45;;
50731;SDS011;36700;50.488;2.544;2023-07-20T02:30:19;9.02;;;2.63;;
50731;SDS011;36700;50.488;2.544;2023-07-20T02:32:45;7.25;;;2.40;;
50731;SDS011;36700;50.488;2.544;2023-07-20T02:35:17;6.68;;;2.40;;
50731;SDS011;36700;50.488;2.544;2023-07-20T02:37:43;8.77;;;2.78;;
50731;SDS011;36700;50.488;2.544;2023-07-20T02:40:09;9.13;;;2.60;;
50731;SDS011;36700;50.488;2.544;2023-07-20T02:42:35;7.00;;;2.33;;
50731;SDS011;36700;50.488;2.544;2023-07-20T02:45:02;7.93;;;2.53;;
50731;SDS011;36700;50.488;2.544;2023-07-20T02:47:28;7.55;;;2.40;;
50731;SDS011;36700;50.488;2.544;2023-07-20T02:49:54;8.73;;;2.78;;
50731;SDS011;36700;50.488;2.544;2023-07-20T02:52:20;7.68;;;2.78;;
50731;SDS011;36700;50.488;2.544;2023-07-20T02:54:46;9.35;;;2.90;;
50731;SDS011;36700;50.488;2.544;2023-07-20T02:57:12;7.57;;;2.65;;
50731;SDS011;36700;50.488;2.544;2023-07-20T02:59:38;9.98;;;3.03;;
50731;SDS011;36700;50.488;2.544;2023-07-20T03:02:04;9.43;;;3.00;;
50731;SDS011;36700;50.488;2.544;2023-07-20T03:04:30;7.35;;;2.63;;
50731;SDS011;36700;50.488;2.544;2023-07-20T03:06:56;8.73;;;2.97;;
50731;SDS011;36700;50.488;2.544;2023-07-20T03:09:22;6.93;;;2.50;;
50731;SDS011;36700;50.488;2.544;2023-07-20T03:11:48;8.98;;;2.83;;
50731;SDS011;36700;50.488;2.544;2023-07-20T03:14:15;8.77;;;2.88;;
50731;SDS011;36700;50.488;2.544;2023-07-20T03:16:41;9.80;;;2.78;;
50731;SDS011;36700;50.488;2.544;2023-07-20T03:19:07;7.43;;;2.67;;
50731;SDS011;36700;50.488;2.544;2023-07-20T03:21:33;9.43;;;2.58;;
50731;SDS011;36700;50.488;2.544;2023-07-20T03:23:59;9.68;;;2.67;;
50731;SDS011;36700;50.488;2.544;2023-07-20T03:26:25;9.50;;;2.58;;
50731;SDS011;36700;50.488;2.544;2023-07-20T03:28:50;8.93;;;3.03;;
50731;SDS011;36700;50.488;2.544;2023-07-20T03:31:16;8.68;;;2.78;;
50731;SDS011;36700;50.488;2.544;2023-07-20T03:33:42;8.95;;;2.97;;
50731;SDS011;36700;50.488;2.544;2023-07-20T03:36:08;9.43;;;2.97;;
50731;SDS011;36700;50.488;2.544;2023-07-20T03:38:35;10.32;;;2.67;;
50731;SDS011;36700;50.488;2.544;2023-07-20T03:41:01;10.82;;;2.72;;
50731;SDS011;36700;50.488;2.544;2023-07-20T03:43:27;8.65;;;2.67;;
50731;SDS011;36700;50.488;2.544;2023-07-20T03:45:54;9.13;;;2.58;;
50731;SDS011;36700;50.488;2.544;2023-07-20T03:48:23;7.35;;;2.75;;
50731;SDS011;36700;50.488;2.544;2023-07-20T03:50:50;8.07;;;2.80;;
50731;SDS011;36700;50.488;2.544;2023-07-20T03:53:17;10.02;;;2.90;;
50731;SDS011;36700;50.488;2.544;2023-07-20T03:58:13;9.32;;;2.80;;
50731;SDS011;36700;50.488;2.544;2023-07-20T04:00:40;7.05;;;2.55;;
50731;SDS011;36700;50.488;2.544;2023-07-20T04:03:08;7.72;;;2.60;;
50731;SDS011;36700;50.488;2.544;2023-07-20T04:05:34;6.97;;;2.67;;
50731;SDS011;36700;50.488;2.544;2023-07-20T04:08:00;10.20;;;2.80;;
50731;SDS011;36700;50.488;2.544;2023-07-20T04:10:26;10.05;;;3.10;;
50731;SDS011;36700;50.488;2.544;2023-07-20T04:12:52;7.95;;;2.90;;
50731;SDS011;36700;50.488;2.544;2023-07-20T04:15:18;5.72;;;2.80;;
50731;SDS011;36700;50.488;2.544;2023-07-20T04:17:44;12.10;;;3.10;;
50731;SDS011;36700;50.488;2.544;2023-07-20T04:20:11;8.50;;;3.13;;
50731;SDS011;36700;50.488;2.544;2023-07-20T04:22:37;8.43;;;2.70;;
50731;SDS011;36700;50.488;2.544;2023-07-20T04:25:03;8.57;;;2.97;;
50731;SDS011;36700;50.488;2.544;2023-07-20T04:27:29;9.93;;;3.00;;
50731;SDS011;36700;50.488;2.544;2023-07-20T04:29:57;9.85;;;3.15;;
50731;SDS011;36700;50.488;2.544;2023-07-20T04:32:25;8.23;;;3.00;;
50731;SDS011;36700;50.488;2.544;2023-07-20T04:34:51;11.52;;;2.95;;
50731;SDS011;36700;50.488;2.544;2023-07-20T04:37:17;8.68;;;3.20;;
50731;SDS011;36700;50.488;2.544;2023-07-20T04:39:43;9.85;;;3.40;;
50731;SDS011;36700;50.488;2.544;2023-07-20T04:42:09;8.77;;;3.10;;
50731;SDS011;36700;50.488;2.544;2023-07-20T04:44:35;9.85;;;3.08;;
50731;SDS011;36700;50.488;2.544;2023-07-20T04:47:01;8.85;;;3.20;;
50731;SDS011;36700;50.488;2.544;2023-07-20T04:49:28;12.00;;;3.17;;
50731;SDS011;36700;50.488;2.544;2023-07-20T04:51:54;7.20;;;3.05;;
50731;SDS011;36700;50.488;2.544;2023-07-20T04:54:20;9.98;;;3.40;;
50731;SDS011;36700;50.488;2.544;2023-07-20T04:56:46;9.75;;;3.45;;
50731;SDS011;36700;50.488;2.544;2023-07-20T04:59:12;9.57;;;3.50;;
50731;SDS011;36700;50.488;2.544;2023-07-20T05:01:38;9.20;;;3.38;;
50731;SDS011;36700;50.488;2.544;2023-07-20T05:04:04;8.73;;;3.08;;
50731;SDS011;36700;50.488;2.544;2023-07-20T05:06:30;7.43;;;2.97;;
50731;SDS011;36700;50.488;2.544;2023-07-20T05:08:56;10.00;;;3.38;;
50731;SDS011;36700;50.488;2.544;2023-07-20T05:11:22;8.52;;;3.45;;
50731;SDS011;36700;50.488;2.544;2023-07-20T05:13:48;8.80;;;3.42;;
50731;SDS011;36700;50.488;2.544;2023-07-20T05:16:14;8.27;;;3.65;;
50731;SDS011;36700;50.488;2.544;2023-07-20T05:18:40;9.68;;;3.65;;
50731;SDS011;36700;50.488;2.544;2023-07-20T05:21:06;9.73;;;3.42;;
50731;SDS011;36700;50.488;2.544;2023-07-20T05:23:33;10.25;;;3.10;;
50731;SDS011;36700;50.488;2.544;2023-07-20T05:25:59;7.35;;;2.88;;
50731;SDS011;36700;50.488;2.544;2023-07-20T05:28:25;9.95;;;3.40;;
50731;SDS011;36700;50.488;2.544;2023-07-20T05:30:52;8.82;;;3.55;;
50731;SDS011;36700;50.488;2.544;2023-07-20T05:33:22;10.60;;;3.45;;
50731;SDS011;36700;50.488;2.544;2023-07-20T05:35:48;7.03;;;3.00;;
50731;SDS011;36700;50.488;2.544;2023-07-20T05:38:14;7.43;;;3.20;;
50731;SDS011;36700;50.488;2.544;2023-07-20T05:40:41;10.40;;;3.42;;
50731;SDS011;36700;50.488;2.544;2023-07-20T05:43:08;7.57;;;3.30;;
50731;SDS011;36700;50.488;2.544;2023-07-20T05:45:34;8.43;;;3.15;;
50731;SDS011;36700;50.488;2.544;2023-07-20T05:48:00;7.60;;;2.90;;
50731;SDS011;36700;50.488;2.544;2023-07-20T05:50:26;8.20;;;3.33;;
50731;SDS011;36700;50.488;2.544;2023-07-20T05:52:52;8.82;;;3.03;;
50731;SDS011;36700;50.488;2.544;2023-07-20T05:55:18;8.20;;;3.35;;
50731;SDS011;36700;50.488;2.544;2023-07-20T05:57:44;8.40;;;3.08;;
50731;SDS011;36700;50.488;2.544;2023-07-20T06:00:11;7.20;;;2.80;;
50731;SDS011;36700;50.488;2.544;2023-07-20T06:02:38;10.38;;;3.30;;
50731;SDS011;36700;50.488;2.544;2023-07-20T06:05:05;7.40;;;3.05;;
50731;SDS011;36700;50.488;2.544;2023-07-20T06:07:36;7.65;;;2.90;;
50731;SDS011;36700;50.488;2.544;2023-07-20T06:10:02;7.22;;;3.10;;
50731;SDS011;36700;50.488;2.544;2023-07-20T06:12:28;8.80;;;3.30;;
50731;SDS011;36700;50.488;2.544;2023-07-20T06:14:54;7.28;;;2.90;;
50731;SDS011;36700;50.488;2.544;2023-07-20T06:17:20;6.90;;;2.88;;
50731;SDS011;36700;50.488;2.544;2023-07-20T06:19:46;8.05;;;3.25;;
50731;SDS011;36700;50.488;2.544;2023-07-20T06:22:12;9.65;;;3.22;;
50731;SDS011;36700;50.488;2.544;2023-07-20T06:24:38;8.10;;;2.78;;
50731;SDS011;36700;50.488;2.544;2023-07-20T06:27:04;7.82;;;3.17;;
50731;SDS011;36700;50.488;2.544;2023-07-20T06:29:33;7.20;;;3.03;;
50731;SDS011;36700;50.488;2.544;2023-07-20T06:32:00;6.75;;;3.00;;
50731;SDS011;36700;50.488;2.544;2023-07-20T06:34:26;8.60;;;3.08;;
50731;SDS011;36700;50.488;2.544;2023-07-20T06:36:52;8.57;;;3.08;;
50731;SDS011;36700;50.488;2.544;2023-07-20T06:39:18;7.00;;;2.92;;
50731;SDS011;36700;50.488;2.544;2023-07-20T06:41:44;7.07;;;2.90;;
50731;SDS011;36700;50.488;2.544;2023-07-20T06:44:10;6.25;;;2.92;;
50731;SDS011;36700;50.488;2.544;2023-07-20T06:46:36;7.30;;;2.75;;
50731;SDS011;36700;50.488;2.544;2023-07-20T06:49:05;5.65;;;2.78;;
50731;SDS011;36700;50.488;2.544;2023-07-20T06:51:32;4.93;;;2.58;;
50731;SDS011;36700;50.488;2.544;2023-07-20T06:53:58;7.18;;;2.88;;
50731;SDS011;36700;50.488;2.544;2023-07-20T06:56:24;7.82;;;3.03;;
50731;SDS011;36700;50.488;2.544;2023-07-20T06:58:50;6.93;;;2.90;;
50731;SDS011;36700;50.488;2.544;2023-07-20T07:01:16;7.55;;;2.88;;
50731;SDS011;36700;50.488;2.544;2023-07-20T07:03:42;9.82;;;3.03;;
50731;SDS011;36700;50.488;2.544;2023-07-20T07:06:09;5.57;;;2.53;;
50731;SDS011;36700;50.488;2.544;2023-07-20T07:08:36;7.10;;;2.90;;
50731;SDS011;36700;50.488;2.544;2023-07-20T07:11:02;7.65;;;2.80;;
50731;SDS011;36700;50.488;2.544;2023-07-20T07:13:28;4.40;;;2.33;;
50731;SDS011;36700;50.488;2.544;2023-07-20T07:15:54;8.75;;;3.05;;
50731;SDS011;36700;50.488;2.544;2023-07-20T07:18:20;6.80;;;2.97;;
50731;SDS011;36700;50.488;2.544;2023-07-20T07:20:52;7.28;;;2.70;;
50731;SDS011;36700;50.488;2.544;2023-07-20T07:23:18;11.25;;;3.28;;
50731;SDS011;36700;50.488;2.544;2023-07-20T07:25:45;8.05;;;2.97;;
50731;SDS011;36700;50.488;2.544;2023-07-20T07:28:11;10.68;;;2.85;;
50731;SDS011;36700;50.488;2.544;2023-07-20T07:30:37;18.15;;;3.38;;
50731;SDS011;36700;50.488;2.544;2023-07-20T07:33:04;6.70;;;3.00;;
50731;SDS011;36700;50.488;2.544;2023-07-20T07:35:30;11.30;;;3.30;;
50731;SDS011;36700;50.488;2.544;2023-07-20T07:37:56;9.18;;;3.08;;
50731;SDS011;36700;50.488;2.544;2023-07-20T07:40:21;7.95;;;2.70;;
50731;SDS011;36700;50.488;2.544;2023-07-20T07:42:47;11.85;;;3.03;;
50731;SDS011;36700;50.488;2.544;2023-07-20T07:45:14;9.48;;;3.17;;
50731;SDS011;36700;50.488;2.544;2023-07-20T07:47:40;7.63;;;3.08;;
50731;SDS011;36700;50.488;2.544;2023-07-20T07:50:06;7.68;;;2.78;;
50731;SDS011;36700;50.488;2.544;2023-07-20T07:52:32;11.00;;;3.05;;
50731;SDS011;36700;50.488;2.544;2023-07-20T07:54:58;8.60;;;3.13;;
50731;SDS011;36700;50.488;2.544;2023-07-20T07:57:25;9.35;;;3.22;;
50731;SDS011;36700;50.488;2.544;2023-07-20T07:59:51;8.05;;;3.20;;
50731;SDS011;36700;50.488;2.544;2023-07-20T08:02:17;9.70;;;2.97;;
50731;SDS011;36700;50.488;2.544;2023-07-20T08:04:43;11.05;;;3.40;;
50731;SDS011;36700;50.488;2.544;2023-07-20T08:07:09;8.77;;;3.15;;
50731;SDS011;36700;50.488;2.544;2023-07-20T08:09:35;8.20;;;3.17;;
50731;SDS011;36700;50.488;2.544;2023-07-20T08:12:01;8.70;;;3.50;;
50731;SDS011;36700;50.488;2.544;2023-07-20T08:14:27;9.00;;;3.50;;
50731;SDS011;36700;50.488;2.544;2023-07-20T08:16:53;8.05;;;3.13;;
50731;SDS011;36700;50.488;2.544;2023-07-20T08:19:19;8.57;;;3.10;;
50731;SDS011;36700;50.488;2.544;2023-07-20T08:21:45;10.88;;;3.58;;
50731;SDS011;36700;50.488;2.544;2023-07-20T08:24:11;10.30;;;3.20;;
50731;SDS011;36700;50.488;2.544;2023-07-20T08:26:37;9.32;;;3.00;;
50731;SDS011;36700;50.488;2.544;2023-07-20T08:29:03;10.00;;;3.15;;
50731;SDS011;36700;50.488;2.544;2023-07-20T08:31:29;8.38;;;3.30;;
50731;SDS011;36700;50.488;2.544;2023-07-20T08:33:55;8.57;;;3.13;;
50731;SDS011;36700;50.488;2.544;2023-07-20T08:36:22;8.15;;;2.90;;
50731;SDS011;36700;50.488;2.544;2023-07-20T08:38:49;8.10;;;3.00;;
50731;SDS011;36700;50.488;2.544;2023-07-20T08:41:14;8.15;;;3.00;;
50731;SDS011;36700;50.488;2.544;2023-07-20T08:43:42;9.02;;;3.15;;
50731;SDS011;36700;50.488;2.544;2023-07-20T08:46:10;8.27;;;3.50;;
50731;SDS011;36700;50.488;2.544;2023-07-20T08:48:36;6.53;;;2.75;;
50731;SDS011;36700;50.488;2.544;2023-07-20T08:51:03;6.38;;;2.80;;
50731;SDS011;36700;50.488;2.544;2023-07-20T08:53:30;6.78;;;2.90;;
50731;SDS011;36700;50.488;2.544;2023-07-20T08:55:58;6.55;;;2.75;;
50731;SDS011;36700;50.488;2.544;2023-07-20T08:58:25;7.80;;;3.13;;
50731;SDS011;36700;50.488;2.544;2023-07-20T09:00:52;5.80;;;2.75;;
50731;SDS011;36700;50.488;2.544;2023-07-20T09:03:19;6.55;;;2.97;;
50731;SDS011;36700;50.488;2.544;2023-07-20T09:05:45;7.53;;;3.10;;
50731;SDS011;36700;50.488;2.544;2023-07-20T09:08:11;7.45;;;2.97;;
50731;SDS011;36700;50.488;2.544;2023-07-20T09:10:37;7.53;;;2.60;;
50731;SDS011;36700;50.488;2.544;2023-07-20T09:13:03;6.57;;;2.90;;
50731;SDS011;36700;50.488;2.544;2023-07-20T09:15:29;10.00;;;2.80;;
50731;SDS011;36700;50.488;2.544;2023-07-20T09:17:55;6.55;;;2.80;;
50731;SDS011;36700;50.488;2.544;2023-07-20T09:20:21;5.88;;;3.00;;
50731;SDS011;36700;50.488;2.544;2023-07-20T09:22:48;8.10;;;2.85;;
50731;SDS011;36700;50.488;2.544;2023-07-20T09:25:16;7.22;;;2.65;;
50731;SDS011;36700;50.488;2.544;2023-07-20T09:27:46;7.47;;;2.88;;
50731;SDS011;36700;50.488;2.544;2023-07-20T09:30:13;7.57;;;3.03;;
50731;SDS011;36700;50.488;2.544;2023-07-20T09:32:41;8.50;;;3.08;;
50731;SDS011;36700;50.488;2.544;2023-07-20T09:35:17;8.05;;;3.08;;
50731;SDS011;36700;50.488;2.544;2023-07-20T09:37:49;6.03;;;2.78;;
50731;SDS011;36700;50.488;2.544;2023-07-20T09:40:25;8.13;;;3.00;;
50731;SDS011;36700;50.488;2.544;2023-07-20T09:42:52;6.30;;;2.80;;
50731;SDS011;36700;50.488;2.544;2023-07-20T09:45:35;8.93;;;3.10;;
50731;SDS011;36700;50.488;2.544;2023-07-20T09:48:05;8.00;;;2.85;;
50731;SDS011;36700;50.488;2.544;2023-07-20T09:50:32;7.13;;;2.80;;
50731;SDS011;36700;50.488;2.544;2023-07-20T09:53:00;7.85;;;2.70;;
50731;SDS011;36700;50.488;2.544;2023-07-20T09:55:28;6.45;;;2.75;;
50731;SDS011;36700;50.488;2.544;2023-07-20T09:57:55;8.25;;;3.13;;
50731;SDS011;36700;50.488;2.544;2023-07-20T10:00:22;6.68;;;3.10;;
50731;SDS011;36700;50.488;2.544;2023-07-20T10:02:48;8.60;;;2.95;;
50731;SDS011;36700;50.488;2.544;2023-07-20T10:05:17;6.60;;;2.70;;
50731;SDS011;36700;50.488;2.544;2023-07-20T10:07:46;6.85;;;3.00;;
50731;SDS011;36700;50.488;2.544;2023-07-20T10:10:17;6.65;;;2.80;;
50731;SDS011;36700;50.488;2.544;2023-07-20T10:12:44;5.45;;;2.55;;
50731;SDS011;36700;50.488;2.544;2023-07-20T10:17:59;6.70;;;2.80;;
50731;SDS011;36700;50.488;2.544;2023-07-20T10:20:40;6.45;;;2.50;;
50731;SDS011;36700;50.488;2.544;2023-07-20T10:23:08;11.13;;;3.25;;
50731;SDS011;36700;50.488;2.544;2023-07-20T10:25:42;50.83;;;11.55;;
50731;SDS011;36700;50.488;2.544;2023-07-20T10:33:19;105.65;;;21.15;;
50731;SDS011;36700;50.488;2.544;2023-07-20T10:35:51;67.18;;;13.60;;
50731;SDS011;36700;50.488;2.544;2023-07-20T10:38:38;92.72;;;49.00;;
50731;SDS011;36700;50.488;2.544;2023-07-20T10:52:00;87.32;;;50.60;;
50731;SDS011;36700;50.488;2.544;2023-07-20T10:57:37;76.90;;;42.00;;
50731;SDS011;36700;50.488;2.544;2023-07-20T11:00:11;99.85;;;40.90;;
50731;SDS011;36700;50.488;2.544;2023-07-20T11:02:41;86.75;;;38.88;;
50731;SDS011;36700;50.488;2.544;2023-07-20T11:05:09;95.28;;;39.80;;
50731;SDS011;36700;50.488;2.544;2023-07-20T11:08:14;116.30;;;37.83;;
50731;SDS011;36700;50.488;2.544;2023-07-20T11:11:25;84.60;;;35.05;;
50731;SDS011;36700;50.488;2.544;2023-07-20T11:13:56;91.57;;;33.47;;
50731;SDS011;36700;50.488;2.544;2023-07-20T11:19:20;52.03;;;26.55;;
50731;SDS011;36700;50.488;2.544;2023-07-20T11:21:55;49.03;;;25.08;;
50731;SDS011;36700;50.488;2.544;2023-07-20T11:24:23;44.78;;;24.42;;
50731;SDS011;36700;50.488;2.544;2023-07-20T11:26:50;49.80;;;21.45;;
50731;SDS011;36700;50.488;2.544;2023-07-20T11:29:20;44.58;;;20.85;;
50731;SDS011;36700;50.488;2.544;2023-07-20T11:31:47;38.67;;;19.27;;
50731;SDS011;36700;50.488;2.544;2023-07-20T11:34:14;39.38;;;17.08;;
50731;SDS011;36700;50.488;2.544;2023-07-20T11:36:41;32.70;;;15.55;;
50731;SDS011;36700;50.488;2.544;2023-07-20T11:39:14;33.70;;;15.93;;
50731;SDS011;36700;50.488;2.544;2023-07-20T11:41:46;29.83;;;15.23;;
50731;SDS011;36700;50.488;2.544;2023-07-20T11:44:16;31.67;;;14.55;;
50731;SDS011;36700;50.488;2.544;2023-07-20T11:46:43;28.10;;;12.48;;
50731;SDS011;36700;50.488;2.544;2023-07-20T11:49:13;26.92;;;12.23;;
50731;SDS011;36700;50.488;2.544;2023-07-20T11:51:39;23.38;;;11.95;;
50731;SDS011;36700;50.488;2.544;2023-07-20T11:54:07;22.23;;;10.18;;
50731;SDS011;36700;50.488;2.544;2023-07-20T11:56:34;21.95;;;9.88;;
50731;SDS011;36700;50.488;2.544;2023-07-20T11:59:01;24.77;;;9.27;;
50731;SDS011;36700;50.488;2.544;2023-07-20T12:01:29;20.92;;;9.60;;
50731;SDS011;36700;50.488;2.544;2023-07-20T12:03:57;22.25;;;7.97;;
50731;SDS011;36700;50.488;2.544;2023-07-20T12:06:26;16.40;;;7.50;;
50731;SDS011;36700;50.488;2.544;2023-07-20T12:08:59;14.13;;;6.90;;
50731;SDS011;36700;50.488;2.544;2023-07-20T12:11:35;14.15;;;5.85;;
50731;SDS011;36700;50.488;2.544;2023-07-20T12:14:11;14.77;;;6.15;;
50731;SDS011;36700;50.488;2.544;2023-07-20T12:16:37;16.45;;;6.30;;
50731;SDS011;36700;50.488;2.544;2023-07-20T12:19:07;16.67;;;5.22;;
50731;SDS011;36700;50.488;2.544;2023-07-20T12:21:38;16.90;;;6.70;;
50731;SDS011;36700;50.488;2.544;2023-07-20T12:24:08;15.10;;;6.18;;
50731;SDS011;36700;50.488;2.544;2023-07-20T12:26:36;13.45;;;4.93;;
50731;SDS011;36700;50.488;2.544;2023-07-20T12:29:02;12.98;;;4.95;;
50731;SDS011;36700;50.488;2.544;2023-07-20T12:31:29;10.45;;;4.47;;
50731;SDS011;36700;50.488;2.544;2023-07-20T12:33:56;12.60;;;4.25;;
50731;SDS011;36700;50.488;2.544;2023-07-20T12:36:23;15.00;;;4.50;;
50731;SDS011;36700;50.488;2.544;2023-07-20T12:38:50;10.18;;;3.97;;
50731;SDS011;36700;50.488;2.544;2023-07-20T12:41:16;9.68;;;3.45;;
50731;SDS011;36700;50.488;2.544;2023-07-20T12:43:43;8.88;;;3.78;;
50731;SDS011;36700;50.488;2.544;2023-07-20T12:46:10;10.25;;;4.18;;
50731;SDS011;36700;50.488;2.544;2023-07-20T12:48:41;7.60;;;3.03;;
50731;SDS011;36700;50.488;2.544;2023-07-20T12:51:09;8.50;;;3.38;;
50731;SDS011;36700;50.488;2.544;2023-07-20T12:53:35;9.07;;;3.50;;
50731;SDS011;36700;50.488;2.544;2023-07-20T12:56:01;7.50;;;3.38;;
50731;SDS011;36700;50.488;2.544;2023-07-20T12:58:28;9.15;;;3.83;;
50731;SDS011;36700;50.488;2.544;2023-07-20T13:00:54;8.90;;;3.58;;
50731;SDS011;36700;50.488;2.544;2023-07-20T13:03:20;7.03;;;3.33;;
50731;SDS011;36700;50.488;2.544;2023-07-20T13:05:46;8.68;;;3.42;;
50731;SDS011;36700;50.488;2.544;2023-07-20T13:08:13;9.50;;;3.08;;
50731;SDS011;36700;50.488;2.544;2023-07-20T13:10:40;7.30;;;2.60;;
50731;SDS011;36700;50.488;2.544;2023-07-20T13:13:06;6.95;;;2.80;;
50731;SDS011;36700;50.488;2.544;2023-07-20T13:15:42;7.00;;;2.92;;
50731;SDS011;36700;50.488;2.544;2023-07-20T13:18:10;9.70;;;3.03;;
50731;SDS011;36700;50.488;2.544;2023-07-20T13:20:36;6.90;;;3.08;;
50731;SDS011;36700;50.488;2.544;2023-07-20T13:23:02;6.32;;;2.78;;
50731;SDS011;36700;50.488;2.544;2023-07-20T13:25:28;6.80;;;2.80;;
50731;SDS011;36700;50.488;2.544;2023-07-20T13:27:54;8.05;;;2.80;;
50731;SDS011;36700;50.488;2.544;2023-07-20T13:30:20;6.68;;;2.50;;
50731;SDS011;36700;50.488;2.544;2023-07-20T13:32:48;6.40;;;2.60;;
50731;SDS011;36700;50.488;2.544;2023-07-20T13:35:14;6.70;;;2.60;;
50731;SDS011;36700;50.488;2.544;2023-07-20T13:37:41;6.75;;;2.67;;
50731;SDS011;36700;50.488;2.544;2023-07-20T13:40:07;7.00;;;2.75;;
50731;SDS011;36700;50.488;2.544;2023-07-20T13:42:37;7.15;;;2.67;;
50731;SDS011;36700;50.488;2.544;2023-07-20T13:45:04;7.13;;;2.58;;
50731;SDS011;36700;50.488;2.544;2023-07-20T13:47:31;5.38;;;2.50;;
50731;SDS011;36700;50.488;2.544;2023-07-20T13:49:57;5.88;;;2.50;;
50731;SDS011;36700;50.488;2.544;2023-07-20T13:52:23;5.90;;;2.60;;
50731;SDS011;36700;50.488;2.544;2023-07-20T13:54:49;6.03;;;2.33;;
50731;SDS011;36700;50.488;2.544;2023-07-20T13:57:17;6.00;;;2.55;;
50731;SDS011;36700;50.488;2.544;2023-07-20T13:59:43;5.32;;;2.50;;
50731;SDS011;36700;50.488;2.544;2023-07-20T14:02:10;5.68;;;2.60;;
50731;SDS011;36700;50.488;2.544;2023-07-20T14:04:37;5.47;;;2.55;;
50731;SDS011;36700;50.488;2.544;2023-07-20T14:07:03;5.90;;;2.17;;
50731;SDS011;36700;50.488;2.544;2023-07-20T14:09:29;4.68;;;2.10;;
50731;SDS011;36700;50.488;2.544;2023-07-20T14:11:55;9.73;;;3.20;;
50731;SDS011;36700;50.488;2.544;2023-07-20T14:14:21;6.55;;;2.78;;
50731;SDS011;36700;50.488;2.544;2023-07-20T14:16:47;8.00;;;2.75;;
50731;SDS011;36700;50.488;2.544;2023-07-20T14:19:15;5.90;;;2.35;;
50731;SDS011;36700;50.488;2.544;2023-07-20T14:21:41;5.80;;;2.15;;
50731;SDS011;36700;50.488;2.544;2023-07-20T14:24:07;5.75;;;2.35;;
50731;SDS011;36700;50.488;2.544;2023-07-20T14:26:33;7.38;;;2.08;;
50731;SDS011;36700;50.488;2.544;2023-07-20T14:28:59;6.57;;;2.00;;
50731;SDS011;36700;50.488;2.544;2023-07-20T14:31:25;6.30;;;2.35;;
50731;SDS011;36700;50.488;2.544;2023-07-20T14:33:51;3.85;;;2.00;;
50731;SDS011;36700;50.488;2.544;2023-07-20T14:36:18;5.35;;;2.20;;
50731;SDS011;36700;50.488;2.544;2023-07-20T14:38:45;4.22;;;2.10;;
50731;SDS011;36700;50.488;2.544;2023-07-20T14:41:11;6.25;;;2.15;;
50731;SDS011;36700;50.488;2.544;2023-07-20T14:43:37;4.63;;;1.92;;
50731;SDS011;36700;50.488;2.544;2023-07-20T14:46:04;3.95;;;1.80;;
50731;SDS011;36700;50.488;2.544;2023-07-20T14:48:30;4.40;;;2.00;;
50731;SDS011;36700;50.488;2.544;2023-07-20T14:50:56;4.30;;;2.03;;
50731;SDS011;36700;50.488;2.544;2023-07-20T14:53:22;5.25;;;2.03;;
50731;SDS011;36700;50.488;2.544;2023-07-20T14:55:48;6.03;;;1.90;;
50731;SDS011;36700;50.488;2.544;2023-07-20T14:58:20;5.30;;;2.00;;
50731;SDS011;36700;50.488;2.544;2023-07-20T15:00:47;5.80;;;2.10;;
50731;SDS011;36700;50.488;2.544;2023-07-20T15:03:13;12.18;;;2.58;;
50731;SDS011;36700;50.488;2.544;2023-07-20T15:05:39;10.80;;;2.33;;
50731;SDS011;36700;50.488;2.544;2023-07-20T15:08:07;11.27;;;2.67;;
50731;SDS011;36700;50.488;2.544;2023-07-20T15:10:34;8.15;;;2.13;;
50731;SDS011;36700;50.488;2.544;2023-07-20T15:13:01;6.22;;;1.50;;
50731;SDS011;36700;50.488;2.544;2023-07-20T15:15:37;6.10;;;1.58;;
50731;SDS011;36700;50.488;2.544;2023-07-20T15:18:05;4.82;;;1.60;;
50731;SDS011;36700;50.488;2.544;2023-07-20T15:20:31;2.95;;;1.42;;